sensor_id;sensor_type;location;lat;lon;timestamp;temperature;humidity
35804;DHT22;21924;51.934;7.414;2024-01-10T00:03:37;-5.10;99.90
35804;DHT22;21924;51.934;7.414;2024-01-10T00:06:53;-5.10;99.90
35804;DHT22;21924;51.934;7.414;2024-01-10T00:10:16;-5.10;99.90
35804;DHT22;21924;51.934;7.414;2024-01-10T00:13:15;-5.10;99.90
35804;DHT22;21924;51.934;7.414;2024-01-10T00:16:28;-5.10;99.90
35804;DHT22;21924;51.934;7.414;2024-01-10T00:19:32;-5.10;99.90
35804;DHT22;21924;51.934;7.414;2024-01-10T00:22:17;-5.10;99.90
35804;DHT22;21924;51.934;7.414;2024-01-10T00:25:01;-5.10;99.90
35804;DHT22;21924;51.934;7.414;2024-01-10T00:27:48;-5.10;99.90
35804;DHT22;21924;51.934;7.414;2024-01-10T00:30:45;-5.10;99.90
35804;DHT22;21924;51.934;7.414;2024-01-10T00:33:31;-5.10;99.90
35804;DHT22;21924;51.934;7.414;2024-01-10T00:36:15;-5.20;99.90
35804;DHT22;21924;51.934;7.414;2024-01-10T00:39:00;-5.20;99.90
35804;DHT22;21924;51.934;7.414;2024-01-10T00:41:46;-5.20;99.90
35804;DHT22;21924;51.934;7.414;2024-01-10T00:44:30;-5.20;99.90
35804;DHT22;21924;51.934;7.414;2024-01-10T00:47:14;-5.20;99.90
35804;DHT22;21924;51.934;7.414;2024-01-10T00:49:58;-5.30;99.90
35804;DHT22;21924;51.934;7.414;2024-01-10T00:52:46;-5.20;99.90
35804;DHT22;21924;51.934;7.414;2024-01-10T00:55:30;-5.20;99.90
35804;DHT22;21924;51.934;7.414;2024-01-10T00:58:14;-5.20;99.90
35804;DHT22;21924;51.934;7.414;2024-01-10T01:00:58;-5.20;99.90
35804;DHT22;21924;51.934;7.414;2024-01-10T01:03:43;-5.20;99.90
35804;DHT22;21924;51.934;7.414;2024-01-10T01:06:26;-5.20;99.90
35804;DHT22;21924;51.934;7.414;2024-01-10T01:09:10;-5.20;99.90
35804;DHT22;21924;51.934;7.414;2024-01-10T01:11:57;-5.20;99.90
35804;DHT22;21924;51.934;7.414;2024-01-10T01:14:42;-5.20;99.90
35804;DHT22;21924;51.934;7.414;2024-01-10T01:17:26;-5.20;99.90
35804;DHT22;21924;51.934;7.414;2024-01-10T01:20:12;-5.20;99.90
35804;DHT22;21924;51.934;7.414;2024-01-10T01:22:57;-5.20;99.90
35804;DHT22;21924;51.934;7.414;2024-01-10T01:25:45;-5.30;99.90
35804;DHT22;21924;51.934;7.414;2024-01-10T01:28:38;-5.30;99.90
35804;DHT22;21924;51.934;7.414;2024-01-10T01:31:46;-5.30;99.90
35804;DHT22;21924;51.934;7.414;2024-01-10T01:34:34;-5.30;99.90
35804;DHT22;21924;51.934;7.414;2024-01-10T01:37:32;-5.40;99.90
35804;DHT22;21924;51.934;7.414;2024-01-10T01:40:43;-5.30;99.90
35804;DHT22;21924;51.934;7.414;2024-01-10T01:43:27;-5.30;99.90
35804;DHT22;21924;51.934;7.414;2024-01-10T01:46:12;-5.30;99.90
35804;DHT22;21924;51.934;7.414;2024-01-10T01:49:18;-5.30;99.90
35804;DHT22;21924;51.934;7.414;2024-01-10T01:52:02;-5.40;99.90
35804;DHT22;21924;51.934;7.414;2024-01-10T01:54:48;-5.40;99.90
35804;DHT22;21924;51.934;7.414;2024-01-10T01:57:53;-5.40;99.90
35804;DHT22;21924;51.934;7.414;2024-01-10T02:00:56;-5.40;99.90
35804;DHT22;21924;51.934;7.414;2024-01-10T02:03:41;-5.40;99.90
35804;DHT22;21924;51.934;7.414;2024-01-10T02:06:25;-5.50;99.90
35804;DHT22;21924;51.934;7.414;2024-01-10T02:09:11;-5.50;99.90
35804;DHT22;21924;51.934;7.414;2024-01-10T02:12:19;-5.40;99.90
35804;DHT22;21924;51.934;7.414;2024-01-10T02:15:04;-5.40;99.90
35804;DHT22;21924;51.934;7.414;2024-01-10T02:17:51;-5.40;99.90
35804;DHT22;21924;51.934;7.414;2024-01-10T02:20:35;-5.50;99.90
35804;DHT22;21924;51.934;7.414;2024-01-10T02:23:21;-5.50;99.90
35804;DHT22;21924;51.934;7.414;2024-01-10T02:26:11;-5.50;99.90
35804;DHT22;21924;51.934;7.414;2024-01-10T02:29:07;-5.50;99.90
35804;DHT22;21924;51.934;7.414;2024-01-10T02:31:52;-5.60;99.90
35804;DHT22;21924;51.934;7.414;2024-01-10T02:34:36;-5.60;99.90
35804;DHT22;21924;51.934;7.414;2024-01-10T02:37:20;-5.60;99.90
35804;DHT22;21924;51.934;7.414;2024-01-10T02:40:51;-5.60;99.90
35804;DHT22;21924;51.934;7.414;2024-01-10T02:43:35;-5.60;99.90
35804;DHT22;21924;51.934;7.414;2024-01-10T02:46:28;-5.50;99.90
35804;DHT22;21924;51.934;7.414;2024-01-10T02:49:38;-5.60;99.90
35804;DHT22;21924;51.934;7.414;2024-01-10T02:56:20;-5.60;99.90
35804;DHT22;21924;51.934;7.414;2024-01-10T02:59:04;-5.50;99.90
35804;DHT22;21924;51.934;7.414;2024-01-10T03:01:48;-5.60;99.90
35804;DHT22;21924;51.934;7.414;2024-01-10T03:04:33;-5.60;99.90
35804;DHT22;21924;51.934;7.414;2024-01-10T03:07:22;-5.70;99.90
35804;DHT22;21924;51.934;7.414;2024-01-10T03:10:08;-5.60;99.90
35804;DHT22;21924;51.934;7.414;2024-01-10T03:12:53;-5.60;99.90
35804;DHT22;21924;51.934;7.414;2024-01-10T03:15:37;-5.60;99.90
35804;DHT22;21924;51.934;7.414;2024-01-10T03:18:23;-5.60;99.90
35804;DHT22;21924;51.934;7.414;2024-01-10T03:21:07;-5.60;99.90
35804;DHT22;21924;51.934;7.414;2024-01-10T03:23:57;-5.60;99.90
35804;DHT22;21924;51.934;7.414;2024-01-10T03:26:42;-5.60;99.90
35804;DHT22;21924;51.934;7.414;2024-01-10T03:29:26;-5.60;99.90
35804;DHT22;21924;51.934;7.414;2024-01-10T03:32:10;-5.60;99.90
35804;DHT22;21924;51.934;7.414;2024-01-10T03:34:55;-5.60;99.90
35804;DHT22;21924;51.934;7.414;2024-01-10T03:37:39;-5.60;99.90
35804;DHT22;21924;51.934;7.414;2024-01-10T03:40:23;-5.50;99.90
35804;DHT22;21924;51.934;7.414;2024-01-10T03:43:07;-5.50;99.90
35804;DHT22;21924;51.934;7.414;2024-01-10T03:45:54;-5.60;99.90
35804;DHT22;21924;51.934;7.414;2024-01-10T03:48:39;-5.60;99.90
35804;DHT22;21924;51.934;7.414;2024-01-10T03:51:32;-5.50;99.90
35804;DHT22;21924;51.934;7.414;2024-01-10T03:54:16;-5.60;99.90
35804;DHT22;21924;51.934;7.414;2024-01-10T03:57:00;-5.60;99.90
35804;DHT22;21924;51.934;7.414;2024-01-10T03:59:45;-5.70;99.90
35804;DHT22;21924;51.934;7.414;2024-01-10T04:02:29;-5.60;99.90
35804;DHT22;21924;51.934;7.414;2024-01-10T04:05:13;-5.60;99.90
35804;DHT22;21924;51.934;7.414;2024-01-10T04:07:59;-5.60;99.90
35804;DHT22;21924;51.934;7.414;2024-01-10T04:10:44;-5.60;99.90
35804;DHT22;21924;51.934;7.414;2024-01-10T04:13:28;-5.60;99.90
35804;DHT22;21924;51.934;7.414;2024-01-10T04:16:12;-5.60;99.90
35804;DHT22;21924;51.934;7.414;2024-01-10T04:18:57;-5.60;99.90
35804;DHT22;21924;51.934;7.414;2024-01-10T04:21:41;-5.70;99.90
35804;DHT22;21924;51.934;7.414;2024-01-10T04:24:25;-5.70;99.90
35804;DHT22;21924;51.934;7.414;2024-01-10T04:27:09;-5.70;99.90
35804;DHT22;21924;51.934;7.414;2024-01-10T04:29:54;-5.70;99.90
35804;DHT22;21924;51.934;7.414;2024-01-10T04:32:38;-5.70;99.90
35804;DHT22;21924;51.934;7.414;2024-01-10T04:35:22;-5.70;99.90
35804;DHT22;21924;51.934;7.414;2024-01-10T04:38:06;-5.60;99.90
35804;DHT22;21924;51.934;7.414;2024-01-10T04:40:52;-5.60;99.90
35804;DHT22;21924;51.934;7.414;2024-01-10T04:43:36;-5.60;99.90
35804;DHT22;21924;51.934;7.414;2024-01-10T04:46:20;-5.60;99.90
35804;DHT22;21924;51.934;7.414;2024-01-10T04:49:04;-5.50;99.90
35804;DHT22;21924;51.934;7.414;2024-01-10T04:51:50;-5.60;99.90
35804;DHT22;21924;51.934;7.414;2024-01-10T04:54:34;-5.60;99.90
35804;DHT22;21924;51.934;7.414;2024-01-10T04:57:18;-5.60;99.90
35804;DHT22;21924;51.934;7.414;2024-01-10T05:00:03;-5.50;99.90
35804;DHT22;21924;51.934;7.414;2024-01-10T05:02:49;-5.70;99.90
35804;DHT22;21924;51.934;7.414;2024-01-10T05:05:33;-5.60;99.90
35804;DHT22;21924;51.934;7.414;2024-01-10T05:08:17;-5.60;99.90
35804;DHT22;21924;51.934;7.414;2024-01-10T05:11:04;-5.70;99.90
35804;DHT22;21924;51.934;7.414;2024-01-10T05:13:50;-5.70;99.90
35804;DHT22;21924;51.934;7.414;2024-01-10T05:16:34;-5.70;99.90
35804;DHT22;21924;51.934;7.414;2024-01-10T05:19:20;-5.80;99.90
35804;DHT22;21924;51.934;7.414;2024-01-10T05:22:04;-5.80;99.90
35804;DHT22;21924;51.934;7.414;2024-01-10T05:24:48;-5.80;99.90
35804;DHT22;21924;51.934;7.414;2024-01-10T05:27:32;-5.80;99.90
35804;DHT22;21924;51.934;7.414;2024-01-10T05:30:17;-5.80;99.90
35804;DHT22;21924;51.934;7.414;2024-01-10T05:33:01;-5.80;99.90
35804;DHT22;21924;51.934;7.414;2024-01-10T05:35:45;-5.80;99.90
35804;DHT22;21924;51.934;7.414;2024-01-10T05:38:29;-5.90;99.90
35804;DHT22;21924;51.934;7.414;2024-01-10T05:41:15;-5.90;99.90
35804;DHT22;21924;51.934;7.414;2024-01-10T05:43:59;-5.90;99.90
35804;DHT22;21924;51.934;7.414;2024-01-10T05:46:45;-5.90;99.90
35804;DHT22;21924;51.934;7.414;2024-01-10T05:49:29;-5.90;99.90
35804;DHT22;21924;51.934;7.414;2024-01-10T05:52:13;-5.90;99.90
35804;DHT22;21924;51.934;7.414;2024-01-10T05:54:57;-5.90;99.90
35804;DHT22;21924;51.934;7.414;2024-01-10T05:57:42;-5.90;99.90
35804;DHT22;21924;51.934;7.414;2024-01-10T06:00:26;-5.90;99.90
35804;DHT22;21924;51.934;7.414;2024-01-10T06:03:13;-6.00;99.90
35804;DHT22;21924;51.934;7.414;2024-01-10T06:05:57;-6.00;99.90
35804;DHT22;21924;51.934;7.414;2024-01-10T06:08:41;-6.10;99.90
35804;DHT22;21924;51.934;7.414;2024-01-10T06:11:27;-6.10;99.90
35804;DHT22;21924;51.934;7.414;2024-01-10T06:14:13;-6.10;99.90
35804;DHT22;21924;51.934;7.414;2024-01-10T06:16:57;-6.10;99.90
35804;DHT22;21924;51.934;7.414;2024-01-10T06:19:43;-6.20;99.90
35804;DHT22;21924;51.934;7.414;2024-01-10T06:22:27;-6.10;99.90
35804;DHT22;21924;51.934;7.414;2024-01-10T06:25:12;-6.20;99.90
35804;DHT22;21924;51.934;7.414;2024-01-10T06:27:57;-6.20;99.90
35804;DHT22;21924;51.934;7.414;2024-01-10T06:30:43;-6.30;99.90
35804;DHT22;21924;51.934;7.414;2024-01-10T06:33:27;-6.30;99.90
35804;DHT22;21924;51.934;7.414;2024-01-10T06:36:11;-6.30;99.90
35804;DHT22;21924;51.934;7.414;2024-01-10T06:38:56;-6.30;99.90
35804;DHT22;21924;51.934;7.414;2024-01-10T06:41:42;-6.40;99.90
35804;DHT22;21924;51.934;7.414;2024-01-10T06:44:26;-6.30;99.90
35804;DHT22;21924;51.934;7.414;2024-01-10T06:47:13;-6.30;99.90
35804;DHT22;21924;51.934;7.414;2024-01-10T06:49:58;-6.30;99.90
35804;DHT22;21924;51.934;7.414;2024-01-10T06:52:42;-6.30;99.90
35804;DHT22;21924;51.934;7.414;2024-01-10T06:55:27;-6.30;99.90
35804;DHT22;21924;51.934;7.414;2024-01-10T06:58:13;-6.40;99.90
35804;DHT22;21924;51.934;7.414;2024-01-10T07:00:57;-6.40;99.90
35804;DHT22;21924;51.934;7.414;2024-01-10T07:03:42;-6.40;99.90
35804;DHT22;21924;51.934;7.414;2024-01-10T07:06:26;-6.40;99.90
35804;DHT22;21924;51.934;7.414;2024-01-10T07:09:11;-6.30;99.90
35804;DHT22;21924;51.934;7.414;2024-01-10T07:11:56;-6.30;99.90
35804;DHT22;21924;51.934;7.414;2024-01-10T07:14:40;-6.30;99.90
35804;DHT22;21924;51.934;7.414;2024-01-10T07:17:24;-6.30;99.90
35804;DHT22;21924;51.934;7.414;2024-01-10T07:20:09;-6.30;99.90
35804;DHT22;21924;51.934;7.414;2024-01-10T07:22:56;-6.20;99.90
35804;DHT22;21924;51.934;7.414;2024-01-10T07:25:41;-6.20;99.90
35804;DHT22;21924;51.934;7.414;2024-01-10T07:28:25;-6.20;99.90
35804;DHT22;21924;51.934;7.414;2024-01-10T07:31:11;-6.10;99.90
35804;DHT22;21924;51.934;7.414;2024-01-10T07:33:58;-6.10;99.90
35804;DHT22;21924;51.934;7.414;2024-01-10T07:36:42;-6.10;99.90
35804;DHT22;21924;51.934;7.414;2024-01-10T07:39:27;-6.10;99.90
35804;DHT22;21924;51.934;7.414;2024-01-10T07:42:12;-6.00;99.90
35804;DHT22;21924;51.934;7.414;2024-01-10T07:44:59;-6.00;99.90
35804;DHT22;21924;51.934;7.414;2024-01-10T07:47:43;-6.10;99.90
35804;DHT22;21924;51.934;7.414;2024-01-10T07:50:31;-6.10;99.90
35804;DHT22;21924;51.934;7.414;2024-01-10T07:53:17;-6.00;99.90
35804;DHT22;21924;51.934;7.414;2024-01-10T07:56:02;-5.90;99.90
35804;DHT22;21924;51.934;7.414;2024-01-10T07:58:46;-6.00;99.90
35804;DHT22;21924;51.934;7.414;2024-01-10T08:01:30;-6.00;99.90
35804;DHT22;21924;51.934;7.414;2024-01-10T08:04:14;-5.90;99.90
35804;DHT22;21924;51.934;7.414;2024-01-10T08:06:58;-6.00;99.90
35804;DHT22;21924;51.934;7.414;2024-01-10T08:09:43;-5.90;99.90
35804;DHT22;21924;51.934;7.414;2024-01-10T08:12:27;-5.90;99.90
35804;DHT22;21924;51.934;7.414;2024-01-10T08:15:12;-5.80;99.90
35804;DHT22;21924;51.934;7.414;2024-01-10T08:17:57;-5.80;99.90
35804;DHT22;21924;51.934;7.414;2024-01-10T08:20:41;-5.80;99.90
35804;DHT22;21924;51.934;7.414;2024-01-10T08:23:26;-5.70;99.90
35804;DHT22;21924;51.934;7.414;2024-01-10T08:29:46;-5.60;99.90
35804;DHT22;21924;51.934;7.414;2024-01-10T08:33:12;-5.50;99.90
35804;DHT22;21924;51.934;7.414;2024-01-10T08:36:02;-5.50;99.90
35804;DHT22;21924;51.934;7.414;2024-01-10T08:39:02;-5.40;99.90
35804;DHT22;21924;51.934;7.414;2024-01-10T08:41:47;-5.40;99.90
35804;DHT22;21924;51.934;7.414;2024-01-10T08:44:32;-5.50;99.90
35804;DHT22;21924;51.934;7.414;2024-01-10T08:47:19;-5.30;99.90
35804;DHT22;21924;51.934;7.414;2024-01-10T08:50:05;-5.20;99.90
35804;DHT22;21924;51.934;7.414;2024-01-10T08:52:53;-5.20;99.90
35804;DHT22;21924;51.934;7.414;2024-01-10T08:55:37;-5.10;99.90
35804;DHT22;21924;51.934;7.414;2024-01-10T08:58:21;-5.10;99.90
35804;DHT22;21924;51.934;7.414;2024-01-10T09:01:07;-5.00;99.90
35804;DHT22;21924;51.934;7.414;2024-01-10T09:03:54;-4.90;99.90
35804;DHT22;21924;51.934;7.414;2024-01-10T09:06:40;-4.90;99.90
35804;DHT22;21924;51.934;7.414;2024-01-10T09:09:28;-4.80;99.90
35804;DHT22;21924;51.934;7.414;2024-01-10T09:12:13;-4.80;99.90
35804;DHT22;21924;51.934;7.414;2024-01-10T09:14:57;-4.70;99.90
35804;DHT22;21924;51.934;7.414;2024-01-10T09:17:43;-4.60;99.90
35804;DHT22;21924;51.934;7.414;2024-01-10T09:20:27;-4.50;99.90
35804;DHT22;21924;51.934;7.414;2024-01-10T09:23:19;-4.60;99.90
35804;DHT22;21924;51.934;7.414;2024-01-10T09:26:07;-4.50;99.90
35804;DHT22;21924;51.934;7.414;2024-01-10T09:28:52;-4.50;99.90
35804;DHT22;21924;51.934;7.414;2024-01-10T09:31:37;-4.40;99.90
35804;DHT22;21924;51.934;7.414;2024-01-10T09:34:21;-4.40;99.90
35804;DHT22;21924;51.934;7.414;2024-01-10T09:37:05;-4.30;99.90
35804;DHT22;21924;51.934;7.414;2024-01-10T09:39:49;-4.20;99.90
35804;DHT22;21924;51.934;7.414;2024-01-10T09:42:36;-4.20;99.90
35804;DHT22;21924;51.934;7.414;2024-01-10T09:45:23;-4.10;99.90
35804;DHT22;21924;51.934;7.414;2024-01-10T09:48:09;-4.00;99.90
35804;DHT22;21924;51.934;7.414;2024-01-10T09:50:54;-4.00;99.90
35804;DHT22;21924;51.934;7.414;2024-01-10T09:53:44;-3.90;99.90
35804;DHT22;21924;51.934;7.414;2024-01-10T09:56:33;-3.80;99.90
35804;DHT22;21924;51.934;7.414;2024-01-10T09:59:18;-3.80;99.90
35804;DHT22;21924;51.934;7.414;2024-01-10T10:02:03;-3.60;99.90
35804;DHT22;21924;51.934;7.414;2024-01-10T10:05:13;-3.50;99.90
35804;DHT22;21924;51.934;7.414;2024-01-10T10:07:59;-3.50;99.90
35804;DHT22;21924;51.934;7.414;2024-01-10T10:10:50;-3.30;99.90
35804;DHT22;21924;51.934;7.414;2024-01-10T10:13:37;-3.30;99.90
35804;DHT22;21924;51.934;7.414;2024-01-10T10:16:26;-3.20;99.90
35804;DHT22;21924;51.934;7.414;2024-01-10T10:19:22;-3.10;99.90
35804;DHT22;21924;51.934;7.414;2024-01-10T10:22:10;-2.90;99.90
35804;DHT22;21924;51.934;7.414;2024-01-10T10:24:55;-2.80;99.90
35804;DHT22;21924;51.934;7.414;2024-01-10T10:27:39;-2.80;99.90
35804;DHT22;21924;51.934;7.414;2024-01-10T10:30:27;-2.80;99.90
35804;DHT22;21924;51.934;7.414;2024-01-10T10:33:11;-2.70;99.90
35804;DHT22;21924;51.934;7.414;2024-01-10T10:35:55;-2.60;99.90
35804;DHT22;21924;51.934;7.414;2024-01-10T10:38:40;-2.50;99.90
35804;DHT22;21924;51.934;7.414;2024-01-10T10:41:25;-2.40;99.90
35804;DHT22;21924;51.934;7.414;2024-01-10T10:44:12;-2.30;99.90
35804;DHT22;21924;51.934;7.414;2024-01-10T10:47:04;-2.20;99.90
35804;DHT22;21924;51.934;7.414;2024-01-10T10:49:53;-2.00;99.90
35804;DHT22;21924;51.934;7.414;2024-01-10T10:52:38;-2.00;99.90
35804;DHT22;21924;51.934;7.414;2024-01-10T10:55:26;-2.00;99.90
35804;DHT22;21924;51.934;7.414;2024-01-10T10:58:12;-1.90;99.90
35804;DHT22;21924;51.934;7.414;2024-01-10T11:00:58;-1.80;99.90
35804;DHT22;21924;51.934;7.414;2024-01-10T11:03:46;-1.50;99.90
35804;DHT22;21924;51.934;7.414;2024-01-10T11:06:31;-1.50;99.90
35804;DHT22;21924;51.934;7.414;2024-01-10T11:09:18;-1.50;99.90
35804;DHT22;21924;51.934;7.414;2024-01-10T11:15:13;-1.30;99.90
35804;DHT22;21924;51.934;7.414;2024-01-10T11:22:00;-1.00;99.90
35804;DHT22;21924;51.934;7.414;2024-01-10T11:24:40;-1.00;99.90
35804;DHT22;21924;51.934;7.414;2024-01-10T11:27:26;-0.90;99.90
35804;DHT22;21924;51.934;7.414;2024-01-10T11:30:34;-1.00;99.90
35804;DHT22;21924;51.934;7.414;2024-01-10T11:33:41;-0.90;99.90
35804;DHT22;21924;51.934;7.414;2024-01-10T11:40:06;-0.70;99.90
35804;DHT22;21924;51.934;7.414;2024-01-10T11:43:13;-0.50;99.90
35804;DHT22;21924;51.934;7.414;2024-01-10T11:46:10;-0.50;99.90
35804;DHT22;21924;51.934;7.414;2024-01-10T11:53:05;-0.50;99.90
35804;DHT22;21924;51.934;7.414;2024-01-10T13:03:22;0.20;99.90
35804;DHT22;21924;51.934;7.414;2024-01-10T13:17:24;0.10;99.90
35804;DHT22;21924;51.934;7.414;2024-01-10T14:53:49;-0.80;99.90
35804;DHT22;21924;51.934;7.414;2024-01-10T15:55:54;-1.70;99.90
35804;DHT22;21924;51.934;7.414;2024-01-10T16:09:56;-1.90;99.90
35804;DHT22;21924;51.934;7.414;2024-01-10T16:12:41;-1.90;99.90
35804;DHT22;21924;51.934;7.414;2024-01-10T16:15:56;-1.90;99.90
35804;DHT22;21924;51.934;7.414;2024-01-10T16:22:29;-2.00;99.90
35804;DHT22;21924;51.934;7.414;2024-01-10T16:25:20;-2.00;99.90
35804;DHT22;21924;51.934;7.414;2024-01-10T16:32:58;-2.00;99.90
35804;DHT22;21924;51.934;7.414;2024-01-10T16:39:38;-2.10;99.90
35804;DHT22;21924;51.934;7.414;2024-01-10T16:46:11;-2.20;99.90
35804;DHT22;21924;51.934;7.414;2024-01-10T16:56:21;-2.30;99.90
35804;DHT22;21924;51.934;7.414;2024-01-10T16:59:07;-2.30;99.90
35804;DHT22;21924;51.934;7.414;2024-01-10T17:13:27;-2.40;99.90
35804;DHT22;21924;51.934;7.414;2024-01-10T17:16:57;-2.40;99.90
35804;DHT22;21924;51.934;7.414;2024-01-10T17:19:42;-2.40;99.90
35804;DHT22;21924;51.934;7.414;2024-01-10T17:52:06;-2.70;99.90
35804;DHT22;21924;51.934;7.414;2024-01-10T17:59:06;-2.80;99.90
35804;DHT22;21924;51.934;7.414;2024-01-10T18:17:07;-3.00;99.90
35804;DHT22;21924;51.934;7.414;2024-01-10T18:24:10;-3.10;99.90
35804;DHT22;21924;51.934;7.414;2024-01-10T18:31:06;-3.10;99.90
35804;DHT22;21924;51.934;7.414;2024-01-10T19:14:14;-3.40;99.90
35804;DHT22;21924;51.934;7.414;2024-01-10T19:28:15;-3.50;99.90
35804;DHT22;21924;51.934;7.414;2024-01-10T20:19:23;-3.60;99.90
35804;DHT22;21924;51.934;7.414;2024-01-10T20:22:44;-3.60;99.90
35804;DHT22;21924;51.934;7.414;2024-01-10T21:28:20;-3.80;99.90
35804;DHT22;21924;51.934;7.414;2024-01-10T21:31:26;-3.90;99.90
35804;DHT22;21924;51.934;7.414;2024-01-10T21:41:34;-3.80;99.90
35804;DHT22;21924;51.934;7.414;2024-01-10T21:47:56;-3.80;99.90
35804;DHT22;21924;51.934;7.414;2024-01-10T22:02:02;-4.00;99.90
35804;DHT22;21924;51.934;7.414;2024-01-10T22:38:35;-4.00;99.90
35804;DHT22;21924;51.934;7.414;2024-01-10T23:40:38;-4.10;99.90
